createdAt,value
2017-07-14T00:00:02.529Z,90.6
2017-07-14T00:01:09.714Z,90.3
2017-07-14T00:02:15.680Z,91.0
2017-07-14T00:03:22.130Z,91.6
2017-07-14T00:04:29.837Z,92.1
2017-07-14T00:05:38.511Z,92.6
2017-07-14T00:06:44.018Z,92.7
2017-07-14T00:07:49.629Z,92.5
2017-07-14T00:08:56.529Z,91.8
2017-07-14T00:10:02.441Z,91.7
2017-07-14T00:11:08.023Z,91.7
2017-07-14T00:12:13.260Z,91.6
2017-07-14T00:13:21.219Z,91.4
2017-07-14T00:14:25.867Z,91.7
2017-07-14T00:15:31.526Z,91.6
2017-07-14T00:16:37.166Z,91.9
2017-07-14T00:17:44.049Z,91.9
2017-07-14T00:18:47.902Z,91.9
2017-07-14T00:19:53.281Z,92.2
2017-07-14T00:20:59.315Z,92.4
2017-07-14T00:22:05.542Z,92.9
2017-07-14T00:23:09.711Z,92.9
2017-07-14T00:24:14.656Z,92.7
2017-07-14T00:25:21.234Z,92.7
2017-07-14T00:26:28.047Z,92.7
2017-07-14T00:27:32.043Z,93.1
2017-07-14T00:28:39.804Z,93.1
2017-07-14T00:29:44.478Z,93.1
2017-07-14T00:30:51.282Z,93.0
2017-07-14T00:31:59.020Z,92.8
2017-07-14T00:33:04.317Z,92.4
2017-07-14T00:34:11.069Z,93.1
2017-07-14T00:35:17.283Z,93.6
2017-07-14T00:36:24.744Z,93.6
2017-07-14T00:37:31.811Z,92.9
2017-07-14T00:38:37.240Z,93.5
2017-07-14T00:39:41.601Z,93.3
2017-07-14T00:40:49.087Z,93.3
2017-07-14T00:41:55.088Z,93.1
2017-07-14T00:42:59.794Z,93.1
2017-07-14T00:44:05.077Z,93.0
2017-07-14T00:45:08.719Z,92.9
2017-07-14T00:46:15.715Z,92.8
2017-07-14T00:47:23.577Z,93.0
2017-07-14T00:48:27.653Z,93.0
2017-07-14T00:49:35.636Z,93.0
2017-07-14T00:50:41.081Z,92.9
2017-07-14T00:51:45.019Z,92.8
2017-07-14T00:52:50.539Z,92.8
2017-07-14T00:53:56.982Z,92.8
2017-07-14T00:55:02.324Z,92.6
2017-07-14T00:56:08.305Z,92.9
2017-07-14T00:57:12.593Z,93.1
2017-07-14T00:58:19.095Z,93.0
2017-07-14T00:59:25.706Z,93.0
2017-07-14T01:00:29.600Z,92.8
2017-07-14T01:01:33.716Z,92.9
2017-07-14T01:02:39.252Z,93.1
2017-07-14T01:03:45.257Z,93.5
2017-07-14T01:04:51.291Z,93.4
2017-07-14T01:05:56.690Z,93.4
2017-07-14T01:07:04.116Z,93.4
2017-07-14T01:08:12.728Z,93.5
2017-07-14T01:09:18.648Z,93.4
2017-07-14T01:10:24.433Z,93.6
2017-07-14T01:11:31.321Z,94.0
2017-07-14T01:12:37.547Z,94.3
2017-07-14T01:13:42.271Z,94.5
2017-07-14T01:14:52.623Z,94.6
2017-07-14T01:15:56.095Z,94.6
2017-07-14T01:17:04.301Z,94.6
2017-07-14T01:18:11.291Z,94.5
2017-07-14T01:19:17.025Z,94.4
2017-07-14T01:20:24.377Z,94.4
2017-07-14T01:21:29.393Z,94.6
2017-07-14T01:22:35.633Z,94.8
2017-07-14T01:23:39.593Z,94.8
2017-07-14T01:24:49.268Z,94.9
2017-07-14T01:25:56.639Z,94.8
2017-07-14T01:27:01.522Z,94.8
2017-07-14T01:28:05.764Z,94.7
2017-07-14T01:29:09.966Z,94.6
2017-07-14T01:30:15.660Z,94.7
2017-07-14T01:31:18.911Z,94.7
2017-07-14T01:32:27.150Z,94.8
2017-07-14T01:33:32.754Z,94.8
2017-07-14T01:34:38.707Z,94.8
2017-07-14T01:35:45.446Z,94.7
2017-07-14T01:36:50.659Z,94.5
2017-07-14T01:37:55.830Z,94.6
2017-07-14T01:39:01.906Z,94.5
2017-07-14T01:40:07.390Z,94.2
2017-07-14T01:41:15.172Z,94.0
2017-07-14T01:42:20.370Z,93.8
2017-07-14T01:43:26.171Z,94.0
2017-07-14T01:44:30.499Z,94.2
2017-07-14T01:45:36.276Z,94.3
2017-07-14T01:46:42.939Z,94.3
2017-07-14T01:47:48.967Z,94.4
2017-07-14T01:48:54.831Z,94.5
2017-07-14T01:49:59.323Z,94.9
2017-07-14T01:51:05.048Z,95.3
2017-07-14T01:52:11.520Z,95.4
2017-07-14T01:53:17.495Z,95.5
2017-07-14T01:54:21.760Z,95.5
2017-07-14T01:55:28.685Z,95.6
2017-07-14T01:56:34.907Z,95.6
2017-07-14T01:57:42.206Z,95.6
2017-07-14T01:58:47.319Z,95.6
2017-07-14T01:59:53.786Z,95.5
2017-07-14T02:00:59.497Z,95.5
2017-07-14T02:02:05.967Z,95.5
2017-07-14T02:03:10.105Z,95.5
2017-07-14T02:04:21.420Z,95.4
2017-07-14T02:05:28.205Z,95.4
2017-07-14T02:06:34.203Z,95.4
2017-07-14T02:07:41.999Z,95.3
2017-07-14T02:08:48.218Z,95.2
2017-07-14T02:09:54.738Z,95.3
2017-07-14T02:10:59.302Z,95.4
2017-07-14T02:12:05.973Z,95.5
2017-07-14T02:13:11.842Z,95.5
2017-07-14T02:14:18.433Z,95.6
2017-07-14T02:15:25.854Z,95.6
2017-07-14T02:16:33.531Z,95.5
2017-07-14T02:17:41.367Z,95.5
2017-07-14T02:18:46.397Z,95.4
2017-07-14T02:19:51.742Z,95.5
2017-07-14T02:20:58.798Z,95.5
2017-07-14T02:22:06.237Z,95.6
2017-07-14T02:23:11.381Z,95.7
2017-07-14T02:24:16.242Z,95.7
2017-07-14T02:25:22.754Z,95.7
2017-07-14T02:26:29.310Z,95.6
2017-07-14T02:27:34.743Z,95.5
2017-07-14T02:28:38.757Z,95.4
2017-07-14T02:29:46.309Z,95.4
2017-07-14T02:30:49.668Z,95.4
2017-07-14T02:31:55.386Z,95.3
2017-07-14T02:33:02.868Z,95.4
2017-07-14T02:34:07.836Z,95.4
2017-07-14T02:35:13.305Z,95.6
2017-07-14T02:36:17.343Z,95.7
2017-07-14T02:37:26.287Z,95.7
2017-07-14T02:38:30.539Z,95.7
2017-07-14T02:39:35.882Z,95.7
2017-07-14T02:40:40.823Z,95.7
2017-07-14T02:41:44.927Z,95.7
2017-07-14T02:42:52.861Z,95.8
2017-07-14T02:43:58.671Z,95.9
2017-07-14T02:45:03.969Z,95.8
2017-07-14T02:46:09.840Z,95.6
2017-07-14T02:47:14.796Z,95.4
2017-07-14T02:48:21.948Z,95.1
2017-07-14T02:49:29.895Z,94.8
2017-07-14T02:50:39.488Z,94.7
2017-07-14T02:51:44.535Z,94.8
2017-07-14T02:52:50.244Z,94.8
2017-07-14T02:53:54.968Z,94.9
2017-07-14T02:54:59.963Z,95.0
2017-07-14T02:56:07.482Z,95.1
2017-07-14T02:57:13.797Z,95.2
2017-07-14T02:58:19.248Z,95.3
2017-07-14T02:59:24.713Z,95.3
2017-07-14T03:00:30.461Z,95.2
2017-07-14T03:01:36.941Z,95.4
2017-07-14T03:02:44.281Z,95.5
2017-07-14T03:03:50.818Z,95.4
2017-07-14T03:04:54.510Z,95.3
2017-07-14T03:06:00.460Z,95.2
2017-07-14T03:07:07.930Z,95.2
2017-07-14T03:08:16.521Z,95.3
2017-07-14T03:09:21.890Z,95.3
2017-07-14T03:10:26.723Z,95.3
2017-07-14T03:11:32.637Z,95.3
2017-07-14T03:12:37.113Z,95.3
2017-07-14T03:13:46.358Z,95.3
2017-07-14T03:14:52.449Z,95.2
2017-07-14T03:15:59.497Z,95.3
2017-07-14T03:17:06.816Z,95.3
2017-07-14T03:18:10.910Z,95.3
2017-07-14T03:19:19.122Z,95.3
2017-07-14T03:20:26.462Z,95.3
2017-07-14T03:21:33.073Z,95.2
2017-07-14T03:22:41.328Z,95.2
2017-07-14T03:23:47.078Z,95.0
2017-07-14T03:24:55.841Z,95.0
2017-07-14T03:25:58.803Z,95.0
2017-07-14T03:27:03.434Z,95.0
2017-07-14T03:28:09.798Z,95.0
2017-07-14T03:29:18.836Z,95.1
2017-07-14T03:30:26.837Z,95.2
2017-07-14T03:31:32.210Z,95.3
2017-07-14T03:32:38.997Z,95.1
2017-07-14T03:33:46.435Z,95.0
2017-07-14T03:34:50.324Z,94.9
2017-07-14T03:35:57.523Z,94.9
2017-07-14T03:37:02.005Z,94.9
2017-07-14T03:38:08.141Z,94.8
2017-07-14T03:39:15.241Z,94.9
2017-07-14T03:40:21.765Z,94.9
2017-07-14T03:41:28.855Z,94.9
2017-07-14T03:42:35.367Z,94.9
2017-07-14T03:43:40.859Z,94.9
2017-07-14T03:44:47.015Z,94.9
2017-07-14T03:45:57.366Z,94.7
2017-07-14T03:47:05.997Z,94.7
2017-07-14T03:48:13.492Z,94.7
2017-07-14T03:49:21.709Z,94.8
2017-07-14T03:50:29.876Z,94.9
2017-07-14T03:51:40.893Z,95.0
2017-07-14T03:52:47.843Z,94.9
2017-07-14T03:53:53.583Z,94.7
2017-07-14T03:55:00.399Z,94.7
2017-07-14T03:56:07.164Z,94.7
2017-07-14T03:57:13.480Z,94.7
2017-07-14T03:58:22.882Z,94.6
2017-07-14T03:59:28.703Z,94.6
2017-07-14T04:00:37.907Z,94.6
2017-07-14T04:01:42.786Z,94.6
2017-07-14T04:02:52.390Z,94.6
2017-07-14T04:03:59.111Z,94.6
2017-07-14T04:05:07.910Z,94.6
2017-07-14T04:06:12.608Z,94.5
2017-07-14T04:07:17.718Z,94.3
2017-07-14T04:08:25.111Z,94.2
2017-07-14T04:09:32.899Z,94.2
2017-07-14T04:10:37.578Z,94.2
2017-07-14T04:11:44.403Z,94.2
2017-07-14T04:12:51.405Z,94.2
2017-07-14T04:13:56.010Z,94.3
2017-07-14T04:15:03.408Z,94.1
2017-07-14T04:16:10.764Z,94.2
2017-07-14T04:17:17.918Z,94.2
2017-07-14T04:18:25.959Z,94.1
2017-07-14T04:19:34.060Z,94.1
2017-07-14T04:20:41.081Z,94.1
2017-07-14T04:21:51.364Z,94.1
2017-07-14T04:22:57.426Z,94.1
2017-07-14T04:24:05.161Z,94.1
2017-07-14T04:25:11.463Z,93.9
2017-07-14T04:26:18.499Z,94.0
2017-07-14T04:27:26.477Z,94.1
2017-07-14T04:28:33.302Z,94.1
2017-07-14T04:29:40.682Z,94.0
2017-07-14T04:30:49.111Z,93.9
2017-07-14T04:31:54.877Z,93.9
2017-07-14T04:33:02.746Z,94.1
2017-07-14T04:34:09.649Z,94.1
2017-07-14T04:35:17.537Z,93.9
2017-07-14T04:36:25.443Z,93.9
2017-07-14T04:37:29.327Z,93.6
2017-07-14T04:38:35.446Z,93.8
2017-07-14T04:39:40.348Z,93.8
2017-07-14T04:40:46.890Z,93.6
2017-07-14T04:41:53.960Z,93.6
2017-07-14T04:43:02.486Z,93.5
2017-07-14T04:44:07.581Z,93.4
2017-07-14T04:45:15.134Z,93.1
2017-07-14T04:46:21.486Z,92.9
2017-07-14T04:47:28.598Z,92.9
2017-07-14T04:48:36.269Z,92.5
2017-07-14T04:49:42.489Z,92.4
2017-07-14T04:50:49.304Z,92.2
2017-07-14T04:51:58.969Z,92.3
2017-07-14T04:53:06.969Z,92.1
2017-07-14T04:54:13.102Z,91.5
2017-07-14T04:55:22.482Z,90.6
2017-07-14T04:56:28.189Z,91.0
2017-07-14T04:57:34.711Z,90.6
2017-07-14T04:58:42.138Z,90.5
2017-07-14T04:59:48.924Z,90.2
2017-07-14T05:00:55.276Z,90.5
2017-07-14T05:02:04.621Z,90.6
2017-07-14T05:03:13.117Z,90.5
2017-07-14T05:04:20.710Z,90.5
2017-07-14T05:05:26.990Z,90.1
2017-07-14T05:06:34.342Z,89.9
2017-07-14T05:07:44.517Z,89.9
2017-07-14T05:08:51.855Z,89.7
2017-07-14T05:09:58.995Z,89.3
2017-07-14T05:11:06.129Z,89.2
2017-07-14T05:12:15.502Z,89.2
2017-07-14T05:13:17.907Z,88.9
2017-07-14T05:14:27.061Z,88.1
2017-07-14T05:15:35.035Z,88.5
2017-07-14T05:16:39.012Z,87.7
2017-07-14T05:17:45.778Z,88.7
2017-07-14T05:18:53.821Z,88.4
2017-07-14T05:19:59.177Z,87.7
2017-07-14T05:21:03.866Z,87.1
2017-07-14T05:22:10.154Z,86.8
2017-07-14T05:23:17.720Z,86.6
2017-07-14T05:24:22.779Z,85.7
2017-07-14T05:25:27.755Z,85.0
2017-07-14T05:26:33.376Z,84.5
2017-07-14T05:27:38.868Z,84.1
2017-07-14T05:28:46.526Z,84.2
2017-07-14T05:29:51.531Z,83.4
2017-07-14T05:30:59.031Z,83.2
2017-07-14T05:32:04.172Z,83.2
2017-07-14T05:33:11.044Z,82.8
2017-07-14T05:34:19.037Z,83.2
2017-07-14T05:35:26.099Z,83.2
2017-07-14T05:36:31.715Z,82.0
2017-07-14T05:37:37.627Z,82.4
2017-07-14T05:38:42.637Z,82.2
2017-07-14T05:39:50.000Z,81.9
2017-07-14T05:40:55.548Z,81.5
2017-07-14T05:42:02.715Z,81.2
2017-07-14T05:43:11.225Z,80.9
2017-07-14T05:44:19.075Z,80.4
2017-07-14T05:45:22.320Z,79.9
2017-07-14T05:46:27.553Z,80.1
2017-07-14T05:47:34.622Z,79.9
2017-07-14T05:48:42.233Z,80.1
2017-07-14T05:49:49.788Z,79.6
2017-07-14T05:50:56.084Z,79.5
2017-07-14T05:52:02.367Z,79.6
2017-07-14T05:53:07.221Z,80.1
2017-07-14T05:54:17.089Z,80.0
2017-07-14T05:55:23.256Z,79.6
2017-07-14T05:56:30.288Z,80.8
2017-07-14T05:57:36.075Z,81.4
2017-07-14T05:58:42.345Z,81.6
2017-07-14T05:59:48.731Z,81.4
2017-07-14T06:00:55.618Z,81.3
2017-07-14T06:02:02.211Z,81.2
2017-07-14T06:03:11.601Z,81.4
2017-07-14T06:04:19.089Z,81.3
2017-07-14T06:05:25.086Z,82.0
2017-07-14T06:06:32.592Z,82.5
2017-07-14T06:07:39.134Z,82.5
2017-07-14T06:08:45.666Z,82.7
2017-07-14T06:09:52.053Z,82.6
2017-07-14T06:10:58.848Z,82.9
2017-07-14T06:12:04.112Z,83.5
2017-07-14T06:13:09.639Z,83.2
2017-07-14T06:14:16.384Z,82.4
2017-07-14T06:15:23.454Z,82.4
2017-07-14T06:16:29.821Z,82.8
2017-07-14T06:17:37.110Z,82.0
2017-07-14T06:18:44.116Z,82.3
2017-07-14T06:19:54.612Z,82.8
2017-07-14T06:20:59.781Z,83.0
2017-07-14T06:22:05.756Z,82.5
2017-07-14T06:23:14.634Z,82.5
2017-07-14T06:24:22.627Z,83.2
2017-07-14T06:25:31.639Z,83.6
2017-07-14T06:26:40.056Z,84.1
2017-07-14T06:27:47.997Z,84.6
2017-07-14T06:28:55.227Z,84.6
2017-07-14T06:30:06.382Z,83.9
2017-07-14T06:31:11.754Z,83.7
2017-07-14T06:32:20.436Z,83.8
2017-07-14T06:33:27.605Z,83.8
2017-07-14T06:34:34.331Z,83.9
2017-07-14T06:35:43.141Z,84.2
2017-07-14T06:36:47.637Z,83.3
2017-07-14T06:37:52.744Z,84.0
2017-07-14T06:38:59.969Z,83.7
2017-07-14T06:40:07.243Z,82.4
2017-07-14T06:41:13.368Z,82.2
2017-07-14T06:42:20.354Z,81.6
2017-07-14T06:43:25.185Z,81.0
2017-07-14T06:44:27.500Z,82.3
2017-07-14T06:45:32.788Z,82.5
2017-07-14T06:46:35.039Z,83.3
2017-07-14T06:47:37.324Z,83.9
2017-07-14T06:48:40.973Z,84.1
2017-07-14T06:49:43.528Z,84.5
2017-07-14T06:50:45.642Z,85.5
2017-07-14T06:51:47.815Z,84.4
2017-07-14T06:52:49.988Z,84.6
2017-07-14T06:53:52.158Z,86.2
2017-07-14T06:54:54.339Z,86.6
2017-07-14T06:55:56.526Z,86.5
2017-07-14T06:56:58.687Z,86.7
2017-07-14T06:58:00.851Z,87.0
2017-07-14T06:59:03.005Z,86.7
2017-07-14T07:00:05.190Z,86.2
2017-07-14T07:01:07.363Z,86.1
2017-07-14T07:02:09.525Z,85.4
2017-07-14T07:03:11.697Z,85.7
2017-07-14T07:04:13.861Z,85.3
2017-07-14T07:05:16.050Z,84.7
2017-07-14T07:06:18.186Z,84.5
2017-07-14T07:07:20.342Z,83.2
2017-07-14T07:08:22.495Z,83.4
2017-07-14T07:09:24.640Z,83.1
2017-07-14T07:10:26.811Z,82.7
2017-07-14T07:11:28.956Z,82.4
2017-07-14T07:12:31.097Z,82.0
2017-07-14T07:13:33.320Z,81.4
2017-07-14T07:14:35.473Z,80.8
2017-07-14T07:15:37.655Z,80.3
2017-07-14T07:16:39.793Z,80.1
2017-07-14T07:17:41.943Z,79.5
2017-07-14T07:18:44.083Z,78.3
2017-07-14T07:19:46.229Z,77.3
2017-07-14T07:20:48.390Z,76.4
2017-07-14T07:21:50.546Z,75.6
2017-07-14T07:22:52.703Z,74.6
2017-07-14T07:23:54.851Z,73.4
2017-07-14T07:24:57.009Z,71.0
2017-07-14T07:25:59.367Z,71.6
2017-07-14T07:27:01.822Z,71.4
2017-07-14T07:28:03.966Z,71.0
2017-07-14T07:29:06.115Z,70.8
2017-07-14T07:30:08.255Z,70.3
2017-07-14T07:31:10.421Z,71.3
2017-07-14T07:32:12.581Z,71.2
2017-07-14T07:33:14.728Z,72.0
2017-07-14T07:34:16.881Z,72.3
2017-07-14T07:35:19.043Z,71.9
2017-07-14T07:36:21.213Z,72.0
2017-07-14T07:37:23.376Z,71.7
2017-07-14T07:38:25.525Z,71.5
2017-07-14T07:39:27.678Z,70.9
2017-07-14T07:40:29.825Z,69.9
2017-07-14T07:41:32.015Z,69.9
2017-07-14T07:42:34.176Z,69.3
2017-07-14T07:43:36.355Z,68.7
2017-07-14T07:44:38.510Z,68.3
2017-07-14T07:45:40.661Z,67.9
2017-07-14T07:46:42.866Z,67.7
2017-07-14T07:47:45.053Z,67.2
2017-07-14T07:48:47.239Z,67.4
2017-07-14T07:49:49.425Z,68.1
2017-07-14T07:50:51.599Z,68.3
2017-07-14T07:51:53.791Z,67.7
2017-07-14T07:52:55.998Z,67.6
2017-07-14T07:53:58.196Z,68.1
2017-07-14T07:55:00.353Z,69.1
2017-07-14T07:56:02.504Z,69.5
2017-07-14T07:57:04.744Z,68.5
2017-07-14T07:58:06.871Z,69.8
2017-07-14T07:59:10.761Z,70.6
2017-07-14T08:00:13.758Z,70.9
2017-07-14T08:01:16.494Z,70.4
2017-07-14T08:02:19.775Z,69.8
2017-07-14T08:03:22.771Z,69.5
2017-07-14T08:04:24.906Z,67.6
2017-07-14T08:05:27.051Z,66.2
2017-07-14T08:06:29.192Z,64.5
2017-07-14T08:07:31.371Z,62.2
2017-07-14T08:08:33.518Z,61.9
2017-07-14T08:09:35.661Z,62.3
2017-07-14T08:10:37.810Z,62.6
2017-07-14T08:11:39.943Z,62.4
2017-07-14T08:12:42.138Z,62.0
2017-07-14T08:13:44.291Z,60.4
2017-07-14T08:14:46.436Z,60.2
2017-07-14T08:15:48.579Z,59.6
2017-07-14T08:16:50.724Z,59.2
2017-07-14T08:17:52.894Z,58.8
2017-07-14T08:18:55.046Z,58.6
2017-07-14T08:19:57.201Z,59.2
2017-07-14T08:20:59.344Z,60.1
2017-07-14T08:22:01.485Z,60.2
2017-07-14T08:23:03.643Z,60.3
2017-07-14T08:24:05.791Z,60.1
2017-07-14T08:25:07.933Z,60.8
2017-07-14T08:26:10.075Z,61.0
2017-07-14T08:27:12.223Z,60.9
2017-07-14T08:28:14.393Z,61.1
2017-07-14T08:29:16.526Z,61.6
2017-07-14T08:30:18.669Z,61.5
2017-07-14T08:31:20.818Z,61.4
2017-07-14T08:32:22.969Z,62.9
2017-07-14T08:33:25.151Z,62.1
2017-07-14T08:34:27.288Z,62.2
2017-07-14T08:35:29.439Z,63.0
2017-07-14T08:36:31.588Z,62.8
2017-07-14T08:37:33.774Z,62.6
2017-07-14T08:38:35.914Z,62.5
2017-07-14T08:39:38.064Z,62.3
2017-07-14T08:40:40.227Z,62.6
2017-07-14T08:41:42.369Z,62.9
2017-07-14T08:42:44.557Z,62.4
2017-07-14T08:43:46.713Z,61.4
2017-07-14T08:44:48.857Z,60.9
2017-07-14T08:45:51.000Z,60.9
2017-07-14T08:46:53.149Z,60.5
2017-07-14T08:47:55.328Z,60.4
2017-07-14T08:48:57.485Z,59.8
2017-07-14T08:49:59.638Z,59.1
2017-07-14T08:51:01.796Z,58.4
2017-07-14T08:52:03.942Z,58.0
2017-07-14T08:53:06.102Z,57.4
2017-07-14T08:54:08.252Z,56.8
2017-07-14T08:55:10.412Z,56.2
2017-07-14T08:56:12.586Z,55.7
2017-07-14T08:57:14.706Z,55.4
2017-07-14T08:58:16.878Z,56.2
2017-07-14T08:59:19.029Z,55.2
2017-07-14T09:00:21.171Z,55.1
2017-07-14T09:01:23.313Z,55.0
2017-07-14T09:02:25.466Z,54.2
2017-07-14T09:03:27.640Z,53.1
2017-07-14T09:04:29.782Z,52.7
2017-07-14T09:05:31.942Z,53.0
2017-07-14T09:06:34.092Z,51.6
2017-07-14T09:07:36.246Z,51.5
2017-07-14T09:08:38.415Z,53.3
2017-07-14T09:09:40.552Z,52.7
2017-07-14T09:10:42.699Z,51.7
2017-07-14T09:11:44.842Z,51.9
2017-07-14T09:12:46.982Z,51.9
2017-07-14T09:13:49.152Z,50.9
2017-07-14T09:14:51.300Z,51.3
2017-07-14T09:15:53.441Z,51.4
2017-07-14T09:16:55.610Z,51.1
2017-07-14T09:17:57.753Z,50.4
2017-07-14T09:18:59.921Z,49.2
2017-07-14T09:20:02.066Z,51.8
2017-07-14T09:21:04.212Z,50.4
2017-07-14T09:22:06.353Z,52.9
2017-07-14T09:23:08.498Z,52.0
2017-07-14T09:24:10.669Z,51.5
2017-07-14T09:25:12.823Z,50.5
2017-07-14T09:26:14.975Z,50.4
2017-07-14T09:27:17.128Z,51.0
2017-07-14T09:28:19.284Z,51.5
2017-07-14T09:29:21.455Z,51.4
2017-07-14T09:30:23.612Z,51.0
2017-07-14T09:31:25.776Z,50.8
2017-07-14T09:32:27.933Z,48.9
2017-07-14T09:33:30.081Z,50.1
2017-07-14T09:34:32.266Z,50.2
2017-07-14T09:35:34.408Z,49.3
2017-07-14T09:36:36.566Z,49.4
2017-07-14T09:37:38.732Z,49.2
2017-07-14T09:38:40.875Z,49.6
2017-07-14T09:39:43.037Z,49.0
2017-07-14T09:40:45.185Z,49.1
2017-07-14T09:41:47.350Z,48.7
2017-07-14T09:42:49.505Z,49.4
2017-07-14T09:43:51.650Z,49.4
2017-07-14T09:44:53.812Z,49.5
2017-07-14T09:45:55.966Z,48.8
2017-07-14T09:46:58.128Z,49.6
2017-07-14T09:48:00.298Z,48.9
2017-07-14T09:49:02.456Z,49.5
2017-07-14T09:50:04.682Z,48.8
2017-07-14T09:51:06.831Z,49.2
2017-07-14T09:52:09.458Z,49.7
2017-07-14T09:53:11.625Z,50.0
2017-07-14T09:54:13.771Z,50.4
2017-07-14T09:55:15.948Z,49.7
2017-07-14T09:56:18.118Z,49.1
2017-07-14T09:57:20.267Z,49.7
2017-07-14T09:58:22.439Z,48.8
2017-07-14T09:59:24.586Z,48.7
2017-07-14T10:00:26.766Z,48.3
2017-07-14T10:01:28.909Z,49.9
2017-07-14T10:02:31.052Z,48.4
2017-07-14T10:03:33.233Z,49.3
2017-07-14T10:04:35.419Z,48.6
2017-07-14T10:05:37.610Z,48.8
2017-07-14T10:06:39.755Z,48.2
2017-07-14T10:07:41.913Z,48.1
2017-07-14T10:08:44.063Z,49.1
2017-07-14T10:09:46.261Z,49.3
2017-07-14T10:10:48.409Z,48.8
2017-07-14T10:11:50.555Z,50.0
2017-07-14T10:12:52.704Z,50.3
2017-07-14T10:13:54.864Z,51.1
2017-07-14T10:14:57.041Z,50.1
2017-07-14T10:15:59.193Z,49.1
2017-07-14T10:17:01.353Z,50.2
2017-07-14T10:18:03.507Z,50.0
2017-07-14T10:19:05.665Z,50.3
2017-07-14T10:20:07.883Z,50.8
2017-07-14T10:21:10.042Z,51.3
2017-07-14T10:22:12.193Z,51.0
2017-07-14T10:23:14.336Z,50.5
2017-07-14T10:24:16.498Z,50.5
2017-07-14T10:25:18.711Z,49.6
2017-07-14T10:26:20.870Z,50.0
2017-07-14T10:27:23.040Z,49.5
2017-07-14T10:28:25.205Z,49.0
2017-07-14T10:29:27.360Z,47.8
2017-07-14T10:30:29.546Z,47.7
2017-07-14T10:31:31.720Z,49.7
2017-07-14T10:32:34.247Z,49.5
2017-07-14T10:33:37.419Z,49.3
2017-07-14T10:34:39.558Z,47.6
2017-07-14T10:35:41.716Z,47.5
2017-07-14T10:36:43.865Z,47.8
2017-07-14T10:37:46.005Z,47.0
2017-07-14T10:38:48.157Z,48.2
2017-07-14T10:39:50.299Z,46.7
2017-07-14T10:40:52.477Z,46.4
2017-07-14T10:41:54.627Z,44.8
2017-07-14T10:42:56.769Z,44.6
2017-07-14T10:44:01.640Z,43.9
2017-07-14T10:45:03.566Z,43.7
2017-07-14T10:46:05.744Z,43.3
2017-07-14T10:47:07.931Z,43.4
2017-07-14T10:48:10.083Z,43.8
2017-07-14T10:49:12.246Z,43.4
2017-07-14T10:50:14.392Z,42.4
2017-07-14T10:51:16.587Z,42.2
2017-07-14T10:52:18.728Z,42.8
2017-07-14T10:53:20.863Z,43.1
2017-07-14T10:54:23.024Z,42.6
2017-07-14T10:55:25.635Z,44.1
2017-07-14T10:56:27.971Z,44.5
2017-07-14T10:57:30.102Z,44.2
2017-07-14T10:58:32.248Z,43.3
2017-07-14T10:59:34.411Z,43.2
2017-07-14T11:00:36.543Z,42.4
2017-07-14T11:01:38.706Z,42.0
2017-07-14T11:02:40.852Z,42.2
2017-07-14T11:03:43.010Z,41.8
2017-07-14T11:04:45.165Z,41.8
2017-07-14T11:05:47.315Z,42.6
2017-07-14T11:06:49.503Z,38.4
2017-07-14T11:07:51.674Z,37.5
2017-07-14T11:08:53.831Z,38.4
2017-07-14T11:09:55.981Z,37.3
2017-07-14T11:10:58.140Z,37.4
2017-07-14T11:12:00.315Z,37.5
2017-07-14T11:13:02.465Z,37.0
2017-07-14T11:14:04.622Z,38.5
2017-07-14T11:15:06.773Z,36.6
2017-07-14T11:16:08.920Z,39.5
2017-07-14T11:17:11.097Z,39.3
2017-07-14T11:18:13.253Z,40.4
2017-07-14T11:19:15.407Z,39.4
2017-07-14T11:20:17.568Z,39.0
2017-07-14T11:21:19.717Z,38.2
2017-07-14T11:22:21.883Z,38.6
2017-07-14T11:23:24.049Z,37.7
2017-07-14T11:24:26.202Z,36.3
2017-07-14T11:25:28.352Z,37.4
2017-07-14T11:26:30.512Z,37.3
2017-07-14T11:27:32.693Z,37.7
2017-07-14T11:28:34.844Z,37.3
2017-07-14T11:29:36.987Z,38.8
2017-07-14T11:30:39.147Z,37.0
2017-07-14T11:31:41.303Z,39.0
2017-07-14T11:32:43.517Z,39.0
2017-07-14T11:33:45.663Z,37.0
2017-07-14T11:34:47.810Z,35.8
2017-07-14T11:35:49.975Z,38.4
2017-07-14T11:36:52.088Z,36.1
2017-07-14T11:37:54.267Z,35.8
2017-07-14T11:38:56.404Z,33.4
2017-07-14T11:39:58.560Z,31.5
2017-07-14T11:41:00.701Z,30.8
2017-07-14T11:42:02.842Z,30.3
2017-07-14T11:43:05.017Z,33.1
2017-07-14T11:44:07.175Z,33.9
2017-07-14T11:45:09.310Z,33.2
2017-07-14T11:46:11.448Z,34.6
2017-07-14T11:47:13.591Z,35.4
2017-07-14T11:48:15.776Z,32.9
2017-07-14T11:49:17.919Z,32.1
2017-07-14T11:50:20.074Z,30.2
2017-07-14T11:51:22.226Z,30.8
2017-07-14T11:52:24.375Z,29.3
2017-07-14T11:53:26.570Z,27.8
2017-07-14T11:54:28.735Z,26.2
2017-07-14T11:55:30.930Z,25.6
2017-07-14T11:56:33.097Z,24.2
2017-07-14T11:57:35.316Z,23.0
2017-07-14T11:58:37.496Z,23.0
2017-07-14T11:59:39.713Z,20.6
2017-07-14T12:00:41.883Z,22.1
2017-07-14T12:01:44.042Z,20.2
2017-07-14T12:02:46.255Z,21.3
2017-07-14T12:03:48.422Z,21.0
2017-07-14T12:04:50.591Z,20.5
2017-07-14T12:05:52.777Z,21.0
2017-07-14T12:06:54.935Z,22.5
2017-07-14T12:07:57.121Z,23.8
2017-07-14T12:08:59.280Z,24.3
2017-07-14T12:10:01.462Z,25.3
2017-07-14T12:11:03.612Z,25.9
2017-07-14T12:12:05.753Z,26.9
2017-07-14T12:13:07.927Z,26.7
2017-07-14T12:14:10.109Z,24.5
2017-07-14T12:15:12.488Z,26.1
2017-07-14T12:16:14.694Z,26.4
2017-07-14T12:17:16.845Z,27.4
2017-07-14T12:18:19.136Z,28.6
2017-07-14T12:19:21.307Z,29.9
2017-07-14T12:20:23.461Z,28.2
2017-07-14T12:21:25.625Z,25.6
2017-07-14T12:22:27.795Z,24.0
2017-07-14T12:23:29.991Z,24.6
2017-07-14T12:24:32.152Z,22.0
2017-07-14T12:25:34.322Z,21.5
2017-07-14T12:26:36.500Z,21.0
2017-07-14T12:27:38.652Z,20.9
2017-07-14T12:28:40.852Z,20.4
2017-07-14T12:29:43.007Z,19.8
2017-07-14T12:30:45.165Z,19.0
2017-07-14T12:31:47.325Z,19.1
2017-07-14T12:32:49.492Z,17.1
2017-07-14T12:33:51.683Z,15.9
2017-07-14T12:34:53.851Z,16.5
2017-07-14T12:35:56.036Z,17.9
2017-07-14T12:36:58.184Z,21.9
2017-07-14T12:38:00.344Z,27.1
2017-07-14T12:39:02.533Z,26.5
2017-07-14T12:40:04.690Z,24.3
2017-07-14T12:41:06.862Z,23.8
2017-07-14T12:42:09.108Z,21.3
2017-07-14T12:43:11.261Z,20.8
2017-07-14T12:44:13.479Z,18.1
2017-07-14T12:45:15.639Z,16.4
2017-07-14T12:46:17.806Z,15.8
2017-07-14T12:47:19.991Z,15.4
2017-07-14T12:48:22.152Z,16.1
2017-07-14T12:49:24.336Z,15.4
2017-07-14T12:50:26.500Z,15.1
2017-07-14T12:51:28.680Z,15.5
2017-07-14T12:52:30.852Z,14.3
2017-07-14T12:53:33.011Z,16.9
2017-07-14T12:54:35.222Z,16.1
2017-07-14T12:55:37.419Z,17.5
2017-07-14T12:56:39.593Z,19.0
2017-07-14T12:57:41.772Z,23.5
2017-07-14T12:58:43.965Z,24.6
2017-07-14T12:59:46.149Z,25.0
2017-07-14T13:00:48.340Z,25.9
2017-07-14T13:01:50.492Z,29.8
2017-07-14T13:02:52.650Z,31.7
2017-07-14T13:03:54.810Z,33.7
2017-07-14T13:04:56.995Z,34.4
2017-07-14T13:05:59.136Z,28.3
2017-07-14T13:07:01.294Z,25.3
2017-07-14T13:08:03.447Z,21.7
2017-07-14T13:09:05.608Z,23.0
2017-07-14T13:10:07.808Z,24.0
2017-07-14T13:11:09.955Z,25.6
2017-07-14T13:12:12.106Z,28.3
2017-07-14T13:13:14.269Z,25.2
2017-07-14T13:14:16.433Z,19.9
2017-07-14T13:15:18.620Z,19.1
2017-07-14T13:16:20.781Z,17.4
2017-07-14T13:17:22.950Z,18.8
2017-07-14T13:18:25.133Z,19.4
2017-07-14T13:19:27.316Z,21.2
2017-07-14T13:20:29.504Z,18.6
2017-07-14T13:21:31.669Z,19.5
2017-07-14T13:22:33.838Z,19.7
2017-07-14T13:23:36.011Z,18.7
2017-07-14T13:24:38.184Z,18.4
2017-07-14T13:25:40.358Z,19.1
2017-07-14T13:26:42.523Z,19.0
2017-07-14T13:27:44.686Z,17.4
2017-07-14T13:28:46.853Z,17.4
2017-07-14T13:29:49.029Z,21.0
2017-07-14T13:30:51.243Z,20.4
2017-07-14T13:31:53.404Z,19.6
2017-07-14T13:32:55.569Z,19.4
2017-07-14T13:33:57.737Z,17.9
2017-07-14T13:34:59.944Z,18.8
2017-07-14T13:36:02.123Z,19.0
2017-07-14T13:37:04.278Z,17.2
2017-07-14T13:38:06.445Z,16.7
2017-07-14T13:39:08.666Z,18.1
2017-07-14T13:40:10.851Z,18.4
2017-07-14T13:41:13.022Z,17.5
2017-07-14T13:42:15.169Z,19.4
2017-07-14T13:43:17.331Z,19.9
2017-07-14T13:44:19.499Z,19.4
2017-07-14T13:45:21.698Z,19.3
2017-07-14T13:46:23.861Z,18.5
2017-07-14T13:47:26.038Z,18.5
2017-07-14T13:48:28.197Z,17.5
2017-07-14T13:49:30.360Z,20.3
2017-07-14T13:50:32.545Z,18.5
2017-07-14T13:51:34.720Z,21.2
2017-07-14T13:52:36.889Z,20.4
2017-07-14T13:53:39.072Z,19.8
2017-07-14T13:54:41.239Z,18.9
2017-07-14T13:55:43.423Z,19.9
2017-07-14T13:56:45.583Z,20.2
2017-07-14T13:57:47.753Z,17.7
2017-07-14T13:58:49.942Z,18.6
2017-07-14T13:59:52.098Z,17.5
2017-07-14T14:00:54.327Z,17.1
2017-07-14T14:01:56.504Z,16.4
2017-07-14T14:02:58.685Z,17.0
2017-07-14T14:04:00.850Z,18.1
2017-07-14T14:05:03.001Z,17.9
2017-07-14T14:06:05.202Z,17.1
2017-07-14T14:07:07.384Z,16.8
2017-07-14T14:08:09.544Z,14.7
2017-07-14T14:09:11.722Z,15.9
2017-07-14T14:10:13.910Z,15.7
2017-07-14T14:11:16.092Z,16.4
2017-07-14T14:12:18.254Z,17.0
2017-07-14T14:13:20.430Z,18.0